PAMB Airport (Manokotak) Information

FAA: MBA - ICAO: PAMB

PAMB Airport Location

State Alaska
County Dillingham
City Manokotak
PAMB Airport is 6 miles east-southeast of Manokotak, AK.
Latitude 58-55-55.4000N
Longitude 158-54-06.8000W
Elevation 106ft

PAMB Airport METARs

METAR PAMB 161756Z AUTO 03014G21KT 8SM BKN044 OVC090 08/03 A2935 RMK AO2 SLP943 T00830033 10083 20078 53000 $
Altimeter 29.35"
Temperature 8.3°C (46.9°F)
Wind 30° at 14KT with gusts to 21KT
Clouds broken at 4,400ft overcast at 9,000ft
Visibility 8.0mi
Time observed: 2021-09-16T17:56:00Z

PAMB Airport Details

Status Operational
Activation August 1971
Ownership Public
Usage Public
Chart KODIAK
ATC on-site No
Beacon schedule N/A
Beacon color clear green

PAMB Airport Contacts

Owner ALASKA DOT&PF CENTRAL REGION
Owner address PO BOX 196900, ANCHORAGE, AK 99519-6900
Owner phone 907-269-0749
Manager SUPERVISOR OPERATIONS SUPPPORT
Manager address CONOCO PHILLIPS ALASKA INC., PO BOX 100360, ANCHORAGE, AK 99501-0360
Manager phone 907-659-7448

PAMB Airport (Manokotak) Radio Frequencies

PAMB (Airport) Radio Frequencies

UNICOM N/A
Common traffic advisory frequency (CTAF) 122.9